sensor_id;sensor_type;location;lat;lon;timestamp;P1;durP1;ratioP1;P2;durP2;ratioP2
60665;SDS011;59128;44.642;21.188;2023-04-03T00:00:31;78.75;;;57.85;;
60665;SDS011;59128;44.642;21.188;2023-04-03T00:02:57;101.00;;;72.18;;
60665;SDS011;59128;44.642;21.188;2023-04-03T00:05:23;135.02;;;87.40;;
60665;SDS011;59128;44.642;21.188;2023-04-03T00:07:49;150.57;;;101.00;;
60665;SDS011;59128;44.642;21.188;2023-04-03T00:10:15;97.28;;;68.63;;
60665;SDS011;59128;44.642;21.188;2023-04-03T00:12:42;112.90;;;77.00;;
60665;SDS011;59128;44.642;21.188;2023-04-03T00:15:08;87.47;;;62.58;;
60665;SDS011;59128;44.642;21.188;2023-04-03T00:17:34;83.70;;;59.80;;
60665;SDS011;59128;44.642;21.188;2023-04-03T00:20:00;77.70;;;56.80;;
60665;SDS011;59128;44.642;21.188;2023-04-03T00:22:26;62.85;;;48.13;;
60665;SDS011;59128;44.642;21.188;2023-04-03T00:24:54;36.63;;;31.33;;
60665;SDS011;59128;44.642;21.188;2023-04-03T00:27:22;29.90;;;26.67;;
60665;SDS011;59128;44.642;21.188;2023-04-03T00:29:48;29.95;;;24.90;;
60665;SDS011;59128;44.642;21.188;2023-04-03T00:32:14;34.42;;;29.10;;
60665;SDS011;59128;44.642;21.188;2023-04-03T00:34:40;91.05;;;67.32;;
60665;SDS011;59128;44.642;21.188;2023-04-03T00:37:06;149.48;;;105.97;;
60665;SDS011;59128;44.642;21.188;2023-04-03T00:39:32;90.40;;;67.07;;
60665;SDS011;59128;44.642;21.188;2023-04-03T00:41:58;87.67;;;66.07;;
60665;SDS011;59128;44.642;21.188;2023-04-03T00:46:54;50.47;;;40.42;;
60665;SDS011;59128;44.642;21.188;2023-04-03T00:49:20;34.72;;;29.13;;
60665;SDS011;59128;44.642;21.188;2023-04-03T00:51:46;30.35;;;25.00;;
60665;SDS011;59128;44.642;21.188;2023-04-03T00:54:12;31.50;;;24.13;;
60665;SDS011;59128;44.642;21.188;2023-04-03T00:56:38;32.85;;;26.67;;
60665;SDS011;59128;44.642;21.188;2023-04-03T01:01:37;32.42;;;26.98;;
60665;SDS011;59128;44.642;21.188;2023-04-03T01:04:04;42.10;;;34.20;;
60665;SDS011;59128;44.642;21.188;2023-04-03T01:06:32;41.67;;;33.60;;
60665;SDS011;59128;44.642;21.188;2023-04-03T01:08:59;42.95;;;35.25;;
60665;SDS011;59128;44.642;21.188;2023-04-03T01:11:26;42.65;;;34.60;;
60665;SDS011;59128;44.642;21.188;2023-04-03T01:13:52;43.60;;;34.63;;
60665;SDS011;59128;44.642;21.188;2023-04-03T01:16:18;56.75;;;45.58;;
60665;SDS011;59128;44.642;21.188;2023-04-03T01:18:45;55.28;;;44.95;;
60665;SDS011;59128;44.642;21.188;2023-04-03T01:24:12;55.75;;;43.15;;
60665;SDS011;59128;44.642;21.188;2023-04-03T01:26:42;56.78;;;42.00;;
60665;SDS011;59128;44.642;21.188;2023-04-03T01:29:08;81.63;;;60.63;;
60665;SDS011;59128;44.642;21.188;2023-04-03T01:34:01;73.13;;;53.58;;
60665;SDS011;59128;44.642;21.188;2023-04-03T01:36:28;80.03;;;59.03;;
60665;SDS011;59128;44.642;21.188;2023-04-03T01:38:55;73.82;;;54.00;;
60665;SDS011;59128;44.642;21.188;2023-04-03T01:41:22;77.38;;;57.58;;
60665;SDS011;59128;44.642;21.188;2023-04-03T01:43:48;88.05;;;67.25;;
60665;SDS011;59128;44.642;21.188;2023-04-03T01:46:18;94.07;;;69.78;;
60665;SDS011;59128;44.642;21.188;2023-04-03T01:48:44;84.18;;;62.40;;
60665;SDS011;59128;44.642;21.188;2023-04-03T01:51:10;74.28;;;55.58;;
60665;SDS011;59128;44.642;21.188;2023-04-03T01:53:36;72.80;;;53.05;;
60665;SDS011;59128;44.642;21.188;2023-04-03T01:56:03;62.28;;;46.85;;
60665;SDS011;59128;44.642;21.188;2023-04-03T01:58:29;52.00;;;41.00;;
60665;SDS011;59128;44.642;21.188;2023-04-03T02:00:55;43.40;;;34.30;;
60665;SDS011;59128;44.642;21.188;2023-04-03T02:03:21;45.03;;;35.35;;
60665;SDS011;59128;44.642;21.188;2023-04-03T02:05:47;40.00;;;31.70;;
60665;SDS011;59128;44.642;21.188;2023-04-03T02:08:13;40.70;;;31.75;;
60665;SDS011;59128;44.642;21.188;2023-04-03T02:10:39;42.73;;;32.93;;
60665;SDS011;59128;44.642;21.188;2023-04-03T02:13:05;37.08;;;28.85;;
60665;SDS011;59128;44.642;21.188;2023-04-03T02:15:31;26.38;;;21.17;;
60665;SDS011;59128;44.642;21.188;2023-04-03T02:17:58;23.75;;;20.27;;
60665;SDS011;59128;44.642;21.188;2023-04-03T02:20:24;22.33;;;17.50;;
60665;SDS011;59128;44.642;21.188;2023-04-03T02:22:50;18.27;;;15.70;;
60665;SDS011;59128;44.642;21.188;2023-04-03T02:25:16;16.58;;;14.23;;
60665;SDS011;59128;44.642;21.188;2023-04-03T02:27:42;13.57;;;12.00;;
60665;SDS011;59128;44.642;21.188;2023-04-03T02:30:08;12.40;;;11.10;;
60665;SDS011;59128;44.642;21.188;2023-04-03T02:32:35;9.00;;;8.10;;
60665;SDS011;59128;44.642;21.188;2023-04-03T02:35:01;8.57;;;7.72;;
60665;SDS011;59128;44.642;21.188;2023-04-03T02:37:27;8.23;;;7.43;;
60665;SDS011;59128;44.642;21.188;2023-04-03T02:39:53;7.10;;;6.40;;
60665;SDS011;59128;44.642;21.188;2023-04-03T02:42:19;6.53;;;5.93;;
60665;SDS011;59128;44.642;21.188;2023-04-03T02:44:45;6.28;;;5.68;;
60665;SDS011;59128;44.642;21.188;2023-04-03T02:47:11;6.28;;;5.68;;
60665;SDS011;59128;44.642;21.188;2023-04-03T02:49:37;5.50;;;5.00;;
60665;SDS011;59128;44.642;21.188;2023-04-03T02:52:03;5.80;;;5.30;;
60665;SDS011;59128;44.642;21.188;2023-04-03T02:54:30;6.10;;;5.50;;
60665;SDS011;59128;44.642;21.188;2023-04-03T02:56:56;6.13;;;5.63;;
60665;SDS011;59128;44.642;21.188;2023-04-03T02:59:22;6.43;;;5.82;;
60665;SDS011;59128;44.642;21.188;2023-04-03T03:01:48;6.80;;;6.20;;
60665;SDS011;59128;44.642;21.188;2023-04-03T03:04:15;7.40;;;6.80;;
60665;SDS011;59128;44.642;21.188;2023-04-03T03:06:41;8.30;;;7.60;;
60665;SDS011;59128;44.642;21.188;2023-04-03T03:09:07;7.88;;;7.25;;
60665;SDS011;59128;44.642;21.188;2023-04-03T03:11:33;7.95;;;7.25;;
60665;SDS011;59128;44.642;21.188;2023-04-03T03:13:59;8.70;;;7.75;;
60665;SDS011;59128;44.642;21.188;2023-04-03T03:16:25;8.75;;;8.00;;
60665;SDS011;59128;44.642;21.188;2023-04-03T03:18:51;9.52;;;8.68;;
60665;SDS011;59128;44.642;21.188;2023-04-03T03:21:17;9.70;;;8.80;;
60665;SDS011;59128;44.642;21.188;2023-04-03T03:23:43;10.23;;;9.32;;
60665;SDS011;59128;44.642;21.188;2023-04-03T03:26:10;10.57;;;9.57;;
60665;SDS011;59128;44.642;21.188;2023-04-03T03:28:36;10.60;;;9.60;;
60665;SDS011;59128;44.642;21.188;2023-04-03T03:31:03;11.88;;;10.77;;
60665;SDS011;59128;44.642;21.188;2023-04-03T03:33:29;12.00;;;10.80;;
60665;SDS011;59128;44.642;21.188;2023-04-03T03:35:55;12.68;;;11.48;;
60665;SDS011;59128;44.642;21.188;2023-04-03T03:38:21;12.10;;;11.00;;
60665;SDS011;59128;44.642;21.188;2023-04-03T03:40:48;12.27;;;11.15;;
60665;SDS011;59128;44.642;21.188;2023-04-03T03:43:15;13.05;;;11.80;;
60665;SDS011;59128;44.642;21.188;2023-04-03T03:45:41;12.68;;;11.48;;
60665;SDS011;59128;44.642;21.188;2023-04-03T03:48:07;12.82;;;11.63;;
60665;SDS011;59128;44.642;21.188;2023-04-03T03:50:33;12.50;;;11.40;;
60665;SDS011;59128;44.642;21.188;2023-04-03T03:52:59;12.60;;;11.40;;
60665;SDS011;59128;44.642;21.188;2023-04-03T03:55:25;12.05;;;10.93;;
60665;SDS011;59128;44.642;21.188;2023-04-03T03:57:51;11.45;;;10.35;;
60665;SDS011;59128;44.642;21.188;2023-04-03T04:00:18;10.60;;;9.60;;
60665;SDS011;59128;44.642;21.188;2023-04-03T04:02:44;10.98;;;9.98;;
60665;SDS011;59128;44.642;21.188;2023-04-03T04:05:10;10.27;;;9.37;;
60665;SDS011;59128;44.642;21.188;2023-04-03T04:07:36;10.93;;;9.93;;
60665;SDS011;59128;44.642;21.188;2023-04-03T04:10:03;12.20;;;10.55;;
60665;SDS011;59128;44.642;21.188;2023-04-03T04:12:29;12.00;;;10.90;;
60665;SDS011;59128;44.642;21.188;2023-04-03T04:14:55;13.10;;;11.90;;
60665;SDS011;59128;44.642;21.188;2023-04-03T04:17:21;13.57;;;12.27;;
60665;SDS011;59128;44.642;21.188;2023-04-03T04:19:47;14.52;;;13.02;;
60665;SDS011;59128;44.642;21.188;2023-04-03T04:22:13;15.95;;;14.32;;
60665;SDS011;59128;44.642;21.188;2023-04-03T04:24:39;16.57;;;14.43;;
60665;SDS011;59128;44.642;21.188;2023-04-03T04:27:05;16.73;;;15.02;;
60665;SDS011;59128;44.642;21.188;2023-04-03T04:29:31;16.58;;;14.95;;
60665;SDS011;59128;44.642;21.188;2023-04-03T04:32:00;15.88;;;14.38;;
60665;SDS011;59128;44.642;21.188;2023-04-03T04:34:26;16.58;;;14.95;;
60665;SDS011;59128;44.642;21.188;2023-04-03T04:36:52;17.73;;;15.75;;
60665;SDS011;59128;44.642;21.188;2023-04-03T04:39:18;19.73;;;17.00;;
60665;SDS011;59128;44.642;21.188;2023-04-03T04:41:44;18.20;;;16.30;;
60665;SDS011;59128;44.642;21.188;2023-04-03T04:44:10;17.30;;;15.10;;
60665;SDS011;59128;44.642;21.188;2023-04-03T04:46:36;16.83;;;14.93;;
60665;SDS011;59128;44.642;21.188;2023-04-03T04:49:02;16.58;;;14.77;;
60665;SDS011;59128;44.642;21.188;2023-04-03T04:51:28;16.50;;;14.60;;
60665;SDS011;59128;44.642;21.188;2023-04-03T04:53:54;15.87;;;13.90;;
60665;SDS011;59128;44.642;21.188;2023-04-03T04:56:20;14.43;;;12.93;;
60665;SDS011;59128;44.642;21.188;2023-04-03T04:58:46;13.95;;;12.55;;
60665;SDS011;59128;44.642;21.188;2023-04-03T05:01:12;13.05;;;11.75;;
60665;SDS011;59128;44.642;21.188;2023-04-03T05:03:38;13.88;;;12.02;;
60665;SDS011;59128;44.642;21.188;2023-04-03T05:06:05;12.90;;;11.57;;
60665;SDS011;59128;44.642;21.188;2023-04-03T05:08:31;16.00;;;11.82;;
60665;SDS011;59128;44.642;21.188;2023-04-03T05:10:57;11.45;;;9.95;;
60665;SDS011;59128;44.642;21.188;2023-04-03T05:13:23;11.57;;;10.07;;
60665;SDS011;59128;44.642;21.188;2023-04-03T05:15:49;11.60;;;9.93;;
60665;SDS011;59128;44.642;21.188;2023-04-03T05:18:15;11.38;;;9.40;;
60665;SDS011;59128;44.642;21.188;2023-04-03T05:20:41;11.50;;;10.00;;
60665;SDS011;59128;44.642;21.188;2023-04-03T05:23:08;11.77;;;9.35;;
60665;SDS011;59128;44.642;21.188;2023-04-03T05:25:36;10.73;;;9.15;;
60665;SDS011;59128;44.642;21.188;2023-04-03T05:28:02;11.00;;;9.80;;
60665;SDS011;59128;44.642;21.188;2023-04-03T05:30:28;11.15;;;9.20;;
60665;SDS011;59128;44.642;21.188;2023-04-03T05:32:54;11.63;;;9.55;;
60665;SDS011;59128;44.642;21.188;2023-04-03T05:35:20;10.77;;;9.68;;
60665;SDS011;59128;44.642;21.188;2023-04-03T05:37:46;12.40;;;9.55;;
60665;SDS011;59128;44.642;21.188;2023-04-03T05:40:13;10.65;;;9.20;;
60665;SDS011;59128;44.642;21.188;2023-04-03T05:42:39;10.85;;;9.20;;
60665;SDS011;59128;44.642;21.188;2023-04-03T05:45:05;10.57;;;9.18;;
60665;SDS011;59128;44.642;21.188;2023-04-03T05:47:31;11.98;;;9.02;;
60665;SDS011;59128;44.642;21.188;2023-04-03T05:49:57;13.70;;;9.77;;
60665;SDS011;59128;44.642;21.188;2023-04-03T05:52:28;11.95;;;10.57;;
60665;SDS011;59128;44.642;21.188;2023-04-03T05:54:54;13.00;;;11.15;;
60665;SDS011;59128;44.642;21.188;2023-04-03T05:57:20;11.55;;;10.35;;
60665;SDS011;59128;44.642;21.188;2023-04-03T05:59:46;13.50;;;11.13;;
60665;SDS011;59128;44.642;21.188;2023-04-03T06:02:14;14.10;;;11.07;;
60665;SDS011;59128;44.642;21.188;2023-04-03T06:04:40;11.45;;;10.25;;
60665;SDS011;59128;44.642;21.188;2023-04-03T06:07:06;11.85;;;10.43;;
60665;SDS011;59128;44.642;21.188;2023-04-03T06:09:33;10.95;;;9.85;;
60665;SDS011;59128;44.642;21.188;2023-04-03T06:11:59;10.23;;;9.23;;
60665;SDS011;59128;44.642;21.188;2023-04-03T06:14:25;11.77;;;9.95;;
60665;SDS011;59128;44.642;21.188;2023-04-03T06:16:52;11.63;;;9.95;;
60665;SDS011;59128;44.642;21.188;2023-04-03T06:19:19;10.70;;;9.20;;
60665;SDS011;59128;44.642;21.188;2023-04-03T06:21:45;10.70;;;8.93;;
60665;SDS011;59128;44.642;21.188;2023-04-03T06:24:12;9.23;;;8.30;;
60665;SDS011;59128;44.642;21.188;2023-04-03T06:26:39;10.32;;;8.10;;
60665;SDS011;59128;44.642;21.188;2023-04-03T06:29:05;9.77;;;8.20;;
60665;SDS011;59128;44.642;21.188;2023-04-03T06:31:32;9.30;;;8.40;;
60665;SDS011;59128;44.642;21.188;2023-04-03T06:33:58;9.27;;;8.35;;
60665;SDS011;59128;44.642;21.188;2023-04-03T06:36:24;8.77;;;7.93;;
60665;SDS011;59128;44.642;21.188;2023-04-03T06:38:50;8.65;;;7.63;;
60665;SDS011;59128;44.642;21.188;2023-04-03T06:41:16;8.90;;;8.00;;
60665;SDS011;59128;44.642;21.188;2023-04-03T06:43:43;9.52;;;8.27;;
60665;SDS011;59128;44.642;21.188;2023-04-03T06:46:20;10.70;;;9.48;;
60665;SDS011;59128;44.642;21.188;2023-04-03T06:48:47;9.95;;;8.98;;
60665;SDS011;59128;44.642;21.188;2023-04-03T06:53:46;9.57;;;8.60;;
60665;SDS011;59128;44.642;21.188;2023-04-03T06:56:13;8.83;;;7.93;;
60665;SDS011;59128;44.642;21.188;2023-04-03T06:58:39;9.97;;;8.40;;
60665;SDS011;59128;44.642;21.188;2023-04-03T07:01:06;9.10;;;8.20;;
60665;SDS011;59128;44.642;21.188;2023-04-03T07:03:33;9.15;;;7.95;;
60665;SDS011;59128;44.642;21.188;2023-04-03T07:06:00;9.30;;;7.93;;
60665;SDS011;59128;44.642;21.188;2023-04-03T07:08:26;8.77;;;7.90;;
60665;SDS011;59128;44.642;21.188;2023-04-03T07:10:52;10.40;;;8.38;;
60665;SDS011;59128;44.642;21.188;2023-04-03T07:13:18;8.63;;;7.82;;
60665;SDS011;59128;44.642;21.188;2023-04-03T07:15:44;9.95;;;7.85;;
60665;SDS011;59128;44.642;21.188;2023-04-03T07:18:10;10.55;;;8.45;;
60665;SDS011;59128;44.642;21.188;2023-04-03T07:20:36;9.63;;;8.25;;
60665;SDS011;59128;44.642;21.188;2023-04-03T07:23:04;9.70;;;8.80;;
60665;SDS011;59128;44.642;21.188;2023-04-03T07:25:30;10.77;;;9.68;;
60665;SDS011;59128;44.642;21.188;2023-04-03T07:27:56;11.80;;;10.60;;
60665;SDS011;59128;44.642;21.188;2023-04-03T07:30:22;12.40;;;11.10;;
60665;SDS011;59128;44.642;21.188;2023-04-03T07:32:49;13.60;;;11.70;;
60665;SDS011;59128;44.642;21.188;2023-04-03T07:35:15;13.50;;;12.18;;
60665;SDS011;59128;44.642;21.188;2023-04-03T07:37:42;13.30;;;12.00;;
60665;SDS011;59128;44.642;21.188;2023-04-03T07:40:08;15.32;;;13.75;;
60665;SDS011;59128;44.642;21.188;2023-04-03T07:42:34;15.35;;;13.77;;
60665;SDS011;59128;44.642;21.188;2023-04-03T07:45:02;13.93;;;12.52;;
60665;SDS011;59128;44.642;21.188;2023-04-03T07:47:28;14.13;;;12.25;;
60665;SDS011;59128;44.642;21.188;2023-04-03T07:49:54;14.00;;;12.50;;
60665;SDS011;59128;44.642;21.188;2023-04-03T07:52:22;14.20;;;12.70;;
60665;SDS011;59128;44.642;21.188;2023-04-03T07:54:48;17.90;;;15.68;;
60665;SDS011;59128;44.642;21.188;2023-04-03T07:57:14;13.75;;;12.35;;
60665;SDS011;59128;44.642;21.188;2023-04-03T07:59:40;13.55;;;12.15;;
60665;SDS011;59128;44.642;21.188;2023-04-03T08:02:10;13.23;;;11.90;;
60665;SDS011;59128;44.642;21.188;2023-04-03T08:04:36;10.98;;;9.82;;
60665;SDS011;59128;44.642;21.188;2023-04-03T08:07:02;9.75;;;8.85;;
60665;SDS011;59128;44.642;21.188;2023-04-03T08:09:28;9.55;;;8.65;;
60665;SDS011;59128;44.642;21.188;2023-04-03T08:11:54;9.70;;;8.70;;
60665;SDS011;59128;44.642;21.188;2023-04-03T08:14:20;9.43;;;8.43;;
60665;SDS011;59128;44.642;21.188;2023-04-03T08:16:47;9.35;;;8.23;;
60665;SDS011;59128;44.642;21.188;2023-04-03T08:19:13;9.45;;;8.55;;
60665;SDS011;59128;44.642;21.188;2023-04-03T08:21:41;12.40;;;8.52;;
60665;SDS011;59128;44.642;21.188;2023-04-03T08:24:08;8.68;;;7.88;;
60665;SDS011;59128;44.642;21.188;2023-04-03T08:26:34;9.45;;;8.50;;
60665;SDS011;59128;44.642;21.188;2023-04-03T08:29:00;8.68;;;7.78;;
60665;SDS011;59128;44.642;21.188;2023-04-03T08:31:26;8.48;;;7.68;;
60665;SDS011;59128;44.642;21.188;2023-04-03T08:33:52;8.95;;;8.15;;
60665;SDS011;59128;44.642;21.188;2023-04-03T08:36:22;9.70;;;8.77;;
60665;SDS011;59128;44.642;21.188;2023-04-03T08:38:49;10.13;;;9.13;;
60665;SDS011;59128;44.642;21.188;2023-04-03T08:46:23;15.45;;;13.23;;
60665;SDS011;59128;44.642;21.188;2023-04-03T08:48:52;14.98;;;13.52;;
60665;SDS011;59128;44.642;21.188;2023-04-03T08:51:19;15.98;;;14.30;;
60665;SDS011;59128;44.642;21.188;2023-04-03T08:54:04;16.73;;;15.02;;
60665;SDS011;59128;44.642;21.188;2023-04-03T08:56:33;16.85;;;15.02;;
60665;SDS011;59128;44.642;21.188;2023-04-03T08:59:01;15.27;;;13.77;;
60665;SDS011;59128;44.642;21.188;2023-04-03T09:01:36;15.25;;;13.77;;
60665;SDS011;59128;44.642;21.188;2023-04-03T09:04:09;14.52;;;13.13;;
60665;SDS011;59128;44.642;21.188;2023-04-03T09:06:36;13.18;;;11.98;;
60665;SDS011;59128;44.642;21.188;2023-04-03T09:20:10;13.35;;;11.02;;
60665;SDS011;59128;44.642;21.188;2023-04-03T09:22:40;11.52;;;10.32;;
60665;SDS011;59128;44.642;21.188;2023-04-03T09:27:33;9.35;;;8.50;;
60665;SDS011;59128;44.642;21.188;2023-04-03T09:29:59;10.55;;;9.55;;
60665;SDS011;59128;44.642;21.188;2023-04-03T09:32:33;9.27;;;8.38;;
60665;SDS011;59128;44.642;21.188;2023-04-03T09:35:01;9.27;;;8.47;;
60665;SDS011;59128;44.642;21.188;2023-04-03T09:37:47;9.37;;;8.30;;
60665;SDS011;59128;44.642;21.188;2023-04-03T09:42:51;8.02;;;7.32;;
60665;SDS011;59128;44.642;21.188;2023-04-03T09:45:25;9.38;;;8.48;;
60665;SDS011;59128;44.642;21.188;2023-04-03T09:50:36;9.52;;;8.63;;
60665;SDS011;59128;44.642;21.188;2023-04-03T09:53:07;9.30;;;8.40;;
60665;SDS011;59128;44.642;21.188;2023-04-03T09:55:34;9.48;;;8.57;;
60665;SDS011;59128;44.642;21.188;2023-04-03T09:58:21;11.77;;;10.68;;
60665;SDS011;59128;44.642;21.188;2023-04-03T10:00:55;9.65;;;8.80;;
60665;SDS011;59128;44.642;21.188;2023-04-03T10:03:27;8.07;;;7.28;;
60665;SDS011;59128;44.642;21.188;2023-04-03T10:05:54;8.55;;;7.75;;
60665;SDS011;59128;44.642;21.188;2023-04-03T10:08:22;8.93;;;7.72;;
60665;SDS011;59128;44.642;21.188;2023-04-03T10:11:04;8.13;;;7.35;;
60665;SDS011;59128;44.642;21.188;2023-04-03T10:13:31;7.55;;;6.70;;
60665;SDS011;59128;44.642;21.188;2023-04-03T10:21:19;6.65;;;6.03;;
60665;SDS011;59128;44.642;21.188;2023-04-03T10:23:50;6.93;;;6.13;;
60665;SDS011;59128;44.642;21.188;2023-04-03T10:26:24;9.07;;;6.93;;
60665;SDS011;59128;44.642;21.188;2023-04-03T10:34:25;7.53;;;6.28;;
60665;SDS011;59128;44.642;21.188;2023-04-03T10:39:46;6.38;;;5.63;;
60665;SDS011;59128;44.642;21.188;2023-04-03T10:47:40;5.40;;;4.82;;
60665;SDS011;59128;44.642;21.188;2023-04-03T10:57:44;4.75;;;4.38;;
60665;SDS011;59128;44.642;21.188;2023-04-03T11:00:17;5.13;;;4.68;;
60665;SDS011;59128;44.642;21.188;2023-04-03T11:05:31;4.68;;;4.28;;
60665;SDS011;59128;44.642;21.188;2023-04-03T11:08:02;5.13;;;4.22;;
60665;SDS011;59128;44.642;21.188;2023-04-03T11:10:31;4.82;;;4.30;;
60665;SDS011;59128;44.642;21.188;2023-04-03T11:13:02;4.75;;;4.35;;
60665;SDS011;59128;44.642;21.188;2023-04-03T11:15:32;4.63;;;4.22;;
60665;SDS011;59128;44.642;21.188;2023-04-03T11:18:00;4.30;;;3.90;;
60665;SDS011;59128;44.642;21.188;2023-04-03T11:20:32;5.20;;;4.20;;
60665;SDS011;59128;44.642;21.188;2023-04-03T11:25:44;4.60;;;4.20;;
60665;SDS011;59128;44.642;21.188;2023-04-03T11:28:12;6.38;;;4.57;;
60665;SDS011;59128;44.642;21.188;2023-04-03T11:35:54;4.30;;;3.90;;
60665;SDS011;59128;44.642;21.188;2023-04-03T11:38:32;4.45;;;4.03;;
60665;SDS011;59128;44.642;21.188;2023-04-03T11:41:04;4.57;;;4.18;;
60665;SDS011;59128;44.642;21.188;2023-04-03T11:43:32;4.20;;;3.80;;
60665;SDS011;59128;44.642;21.188;2023-04-03T11:50:53;4.90;;;3.90;;
60665;SDS011;59128;44.642;21.188;2023-04-03T12:05:50;7.95;;;6.38;;
60665;SDS011;59128;44.642;21.188;2023-04-03T12:08:29;5.65;;;5.15;;
60665;SDS011;59128;44.642;21.188;2023-04-03T12:13:41;7.30;;;6.30;;
60665;SDS011;59128;44.642;21.188;2023-04-03T12:16:29;5.23;;;4.73;;
60665;SDS011;59128;44.642;21.188;2023-04-03T12:18:58;5.63;;;4.63;;
60665;SDS011;59128;44.642;21.188;2023-04-03T12:29:02;6.53;;;5.70;;
60665;SDS011;59128;44.642;21.188;2023-04-03T12:31:42;6.15;;;5.55;;
60665;SDS011;59128;44.642;21.188;2023-04-03T12:34:23;6.32;;;5.72;;
60665;SDS011;59128;44.642;21.188;2023-04-03T12:46:43;7.90;;;7.20;;
60665;SDS011;59128;44.642;21.188;2023-04-03T12:49:52;7.53;;;6.82;;
60665;SDS011;59128;44.642;21.188;2023-04-03T12:52:00;7.78;;;6.97;;
60665;SDS011;59128;44.642;21.188;2023-04-03T12:54:36;6.60;;;6.10;;
60665;SDS011;59128;44.642;21.188;2023-04-03T12:57:12;7.97;;;7.28;;
60665;SDS011;59128;44.642;21.188;2023-04-03T12:59:42;7.00;;;6.28;;
60665;SDS011;59128;44.642;21.188;2023-04-03T13:04:43;9.20;;;8.30;;
60665;SDS011;59128;44.642;21.188;2023-04-03T13:12:52;7.07;;;6.10;;
60665;SDS011;59128;44.642;21.188;2023-04-03T13:15:20;7.72;;;6.82;;
60665;SDS011;59128;44.642;21.188;2023-04-03T13:17:47;8.15;;;6.88;;
60665;SDS011;59128;44.642;21.188;2023-04-03T13:20:35;9.43;;;7.20;;
60665;SDS011;59128;44.642;21.188;2023-04-03T13:23:10;7.60;;;6.80;;
60665;SDS011;59128;44.642;21.188;2023-04-03T13:25:41;8.55;;;6.72;;
60665;SDS011;59128;44.642;21.188;2023-04-03T13:28:09;6.67;;;6.07;;
60665;SDS011;59128;44.642;21.188;2023-04-03T13:30:38;6.53;;;5.95;;
60665;SDS011;59128;44.642;21.188;2023-04-03T13:33:06;5.53;;;5.00;;
60665;SDS011;59128;44.642;21.188;2023-04-03T13:35:44;5.93;;;5.10;;
60665;SDS011;59128;44.642;21.188;2023-04-03T13:38:31;6.03;;;5.40;;
60665;SDS011;59128;44.642;21.188;2023-04-03T13:40:58;9.00;;;7.97;;
60665;SDS011;59128;44.642;21.188;2023-04-03T13:43:34;7.75;;;6.95;;
60665;SDS011;59128;44.642;21.188;2023-04-03T13:46:05;7.47;;;6.68;;
60665;SDS011;59128;44.642;21.188;2023-04-03T13:48:36;6.68;;;5.97;;
60665;SDS011;59128;44.642;21.188;2023-04-03T13:53:29;9.45;;;8.02;;
60665;SDS011;59128;44.642;21.188;2023-04-03T13:55:57;7.28;;;6.57;;
60665;SDS011;59128;44.642;21.188;2023-04-03T13:58:25;13.07;;;10.55;;
60665;SDS011;59128;44.642;21.188;2023-04-03T14:03:19;8.80;;;7.90;;
60665;SDS011;59128;44.642;21.188;2023-04-03T14:05:46;12.47;;;9.10;;
60665;SDS011;59128;44.642;21.188;2023-04-03T14:08:12;21.55;;;15.52;;
60665;SDS011;59128;44.642;21.188;2023-04-03T14:10:38;9.38;;;7.55;;
60665;SDS011;59128;44.642;21.188;2023-04-03T14:13:05;10.85;;;9.50;;
60665;SDS011;59128;44.642;21.188;2023-04-03T14:15:31;10.38;;;9.27;;
60665;SDS011;59128;44.642;21.188;2023-04-03T14:17:57;9.40;;;8.45;;
60665;SDS011;59128;44.642;21.188;2023-04-03T14:20:24;10.00;;;8.20;;
60665;SDS011;59128;44.642;21.188;2023-04-03T14:22:51;11.03;;;9.30;;
60665;SDS011;59128;44.642;21.188;2023-04-03T14:25:19;9.52;;;7.90;;
60665;SDS011;59128;44.642;21.188;2023-04-03T14:27:46;7.97;;;6.35;;
60665;SDS011;59128;44.642;21.188;2023-04-03T14:30:15;6.53;;;4.90;;
60665;SDS011;59128;44.642;21.188;2023-04-03T14:32:41;5.72;;;5.13;;
60665;SDS011;59128;44.642;21.188;2023-04-03T14:35:07;6.68;;;5.97;;
60665;SDS011;59128;44.642;21.188;2023-04-03T14:37:34;8.37;;;6.50;;
60665;SDS011;59128;44.642;21.188;2023-04-03T14:40:01;6.80;;;6.13;;
60665;SDS011;59128;44.642;21.188;2023-04-03T14:42:30;8.68;;;5.90;;
60665;SDS011;59128;44.642;21.188;2023-04-03T14:44:57;7.05;;;5.60;;
60665;SDS011;59128;44.642;21.188;2023-04-03T14:47:24;8.15;;;6.07;;
60665;SDS011;59128;44.642;21.188;2023-04-03T14:49:51;5.70;;;5.10;;
60665;SDS011;59128;44.642;21.188;2023-04-03T14:52:22;4.68;;;3.38;;
60665;SDS011;59128;44.642;21.188;2023-04-03T14:54:48;5.60;;;4.32;;
60665;SDS011;59128;44.642;21.188;2023-04-03T14:57:15;4.53;;;4.13;;
60665;SDS011;59128;44.642;21.188;2023-04-03T14:59:41;6.85;;;5.32;;
60665;SDS011;59128;44.642;21.188;2023-04-03T15:02:13;6.43;;;4.72;;
60665;SDS011;59128;44.642;21.188;2023-04-03T15:04:46;4.35;;;3.60;;
60665;SDS011;59128;44.642;21.188;2023-04-03T15:07:12;3.78;;;3.42;;
60665;SDS011;59128;44.642;21.188;2023-04-03T15:09:38;6.10;;;4.00;;
60665;SDS011;59128;44.642;21.188;2023-04-03T15:12:04;6.13;;;4.80;;
60665;SDS011;59128;44.642;21.188;2023-04-03T15:14:30;5.32;;;3.78;;
60665;SDS011;59128;44.642;21.188;2023-04-03T15:16:56;5.93;;;4.43;;
60665;SDS011;59128;44.642;21.188;2023-04-03T15:19:22;5.28;;;4.10;;
60665;SDS011;59128;44.642;21.188;2023-04-03T15:21:48;12.02;;;8.43;;
60665;SDS011;59128;44.642;21.188;2023-04-03T15:24:14;9.82;;;5.68;;
60665;SDS011;59128;44.642;21.188;2023-04-03T15:26:40;8.52;;;6.43;;
60665;SDS011;59128;44.642;21.188;2023-04-03T15:29:06;9.50;;;4.93;;
60665;SDS011;59128;44.642;21.188;2023-04-03T15:31:33;6.57;;;3.42;;
60665;SDS011;59128;44.642;21.188;2023-04-03T15:33:59;7.82;;;3.80;;
60665;SDS011;59128;44.642;21.188;2023-04-03T15:36:25;5.28;;;3.47;;
60665;SDS011;59128;44.642;21.188;2023-04-03T15:38:51;6.80;;;4.90;;
60665;SDS011;59128;44.642;21.188;2023-04-03T15:41:17;7.40;;;4.70;;
60665;SDS011;59128;44.642;21.188;2023-04-03T15:43:43;4.30;;;2.90;;
60665;SDS011;59128;44.642;21.188;2023-04-03T15:46:09;9.23;;;3.67;;
60665;SDS011;59128;44.642;21.188;2023-04-03T15:48:35;4.82;;;3.13;;
60665;SDS011;59128;44.642;21.188;2023-04-03T15:51:01;8.13;;;4.10;;
60665;SDS011;59128;44.642;21.188;2023-04-03T15:53:27;6.32;;;3.40;;
60665;SDS011;59128;44.642;21.188;2023-04-03T15:55:53;6.78;;;3.63;;
60665;SDS011;59128;44.642;21.188;2023-04-03T15:58:19;7.60;;;2.25;;
60665;SDS011;59128;44.642;21.188;2023-04-03T16:00:45;6.10;;;2.65;;
60665;SDS011;59128;44.642;21.188;2023-04-03T16:03:12;6.82;;;2.80;;
60665;SDS011;59128;44.642;21.188;2023-04-03T16:05:42;7.45;;;3.53;;
60665;SDS011;59128;44.642;21.188;2023-04-03T16:08:08;8.02;;;3.30;;
60665;SDS011;59128;44.642;21.188;2023-04-03T16:10:34;7.43;;;3.17;;
60665;SDS011;59128;44.642;21.188;2023-04-03T16:13:01;5.95;;;2.90;;
60665;SDS011;59128;44.642;21.188;2023-04-03T16:15:27;6.10;;;2.55;;
60665;SDS011;59128;44.642;21.188;2023-04-03T16:17:53;7.15;;;2.85;;
60665;SDS011;59128;44.642;21.188;2023-04-03T16:20:19;6.90;;;3.00;;
60665;SDS011;59128;44.642;21.188;2023-04-03T16:22:47;7.25;;;2.80;;
60665;SDS011;59128;44.642;21.188;2023-04-03T16:25:13;7.32;;;2.75;;
60665;SDS011;59128;44.642;21.188;2023-04-03T16:27:39;9.43;;;2.80;;
60665;SDS011;59128;44.642;21.188;2023-04-03T16:30:05;10.02;;;2.50;;